Time;durP1;ratioP1;P1;durP2;ratioP2;P2;SDS_P1;SDS_P2;PMS_P1;PMS_P2;Temp;Humidity;BMP_temperature;BMP_pressure;BME280_temperature;BME280_humidity;BME280_pressure;Samples;Min_cycle;Max_cycle;Signal;HPM_P1;HPM_P2
2024/01/31 00:01:15;;;;;;;11.93;1.83;;;;;;;-145.18;100.00;46990.53;5071340;28;20116;-81
2024/01/31 00:03:41;;;;;;;4.90;1.40;;;;;;;-145.18;100.00;46984.66;5054703;28;20039;-80
2024/01/31 00:06:06;;;;;;;12.57;2.33;;;;;;;-145.18;100.00;46986.63;5071446;28;20265;-81
2024/01/31 00:08:32;;;;;;;6.60;1.93;;;;;;;-145.18;100.00;46988.56;5070698;28;20388;-81
2024/01/31 00:10:57;;;;;;;6.30;1.43;;;;;;;-145.18;100.00;46992.47;5071433;28;21642;-81
2024/01/31 00:13:22;;;;;;;10.77;2.10;;;;;;;-145.18;100.00;46980.75;5066196;28;20162;-81
2024/01/31 00:15:48;;;;;;;5.67;1.40;;;;;;;-145.18;100.00;46984.66;5063970;28;20052;-81
2024/01/31 00:18:14;;;;;;;2.90;1.27;;;;;;;-145.18;100.00;46986.63;5071637;28;20493;-81
2024/01/31 00:20:39;;;;;;;7.90;2.40;;;;;;;-145.18;100.00;46982.72;5070369;28;20377;-81
2024/01/31 00:23:06;;;;;;;7.50;1.50;;;;;;;-145.18;100.00;46982.72;5003343;22;20324;-82
2024/01/31 00:25:31;;;;;;;5.40;1.60;;;;;;;-145.18;100.00;46984.66;4971334;28;20042;-80
2024/01/31 00:27:56;;;;;;;4.43;1.47;;;;;;;-145.18;100.00;46980.75;4972433;28;20264;-81
2024/01/31 00:30:22;;;;;;;6.67;1.50;;;;;;;-145.18;100.00;46980.75;4973732;28;20042;-80
2024/01/31 00:32:47;;;;;;;6.87;1.50;;;;;;;-145.18;100.00;46976.84;4972073;28;20043;-81
2024/01/31 00:35:12;;;;;;;6.27;2.17;;;;;;;-145.18;100.00;46988.56;4972918;28;20077;-81
2024/01/31 00:37:38;;;;;;;10.20;1.60;;;;;;;-145.18;100.00;46982.72;4970465;28;20030;-81
2024/01/31 00:40:05;;;;;;;6.63;1.67;;;;;;;-145.18;100.00;46982.72;4956128;28;20106;-81
2024/01/31 00:42:31;;;;;;;9.80;1.90;;;;;;;-145.18;100.00;46988.56;4955932;28;20038;-81
2024/01/31 00:44:56;;;;;;;8.77;1.33;;;;;;;-145.18;100.00;46988.56;4972914;28;20395;-81
2024/01/31 00:47:22;;;;;;;5.20;1.17;;;;;;;-145.18;100.00;46988.56;4970703;28;20617;-81
2024/01/31 00:49:47;;;;;;;3.47;1.00;;;;;;;-145.18;100.00;46992.47;4973774;28;20085;-81
2024/01/31 00:52:12;;;;;;;5.37;0.97;;;;;;;-145.18;100.00;46990.53;4973731;28;20142;-81
2024/01/31 00:54:38;;;;;;;7.33;1.10;;;;;;;-145.18;100.00;46988.56;4971761;28;20042;-81
2024/01/31 00:57:05;;;;;;;5.30;0.97;;;;;;;-145.18;100.00;46988.56;4972518;28;20034;-80
2024/01/31 00:59:30;;;;;;;4.67;0.80;;;;;;;-145.18;100.00;46992.47;4972188;28;20066;-81
2024/01/31 01:01:55;;;;;;;6.97;1.27;;;;;;;-145.18;100.00;46988.56;4955988;28;20344;-80
2024/01/31 01:04:21;;;;;;;8.73;1.13;;;;;;;-145.18;100.00;46986.63;4973269;28;20039;-81
2024/01/31 01:06:46;;;;;;;3.73;1.10;;;;;;;-145.18;100.00;46990.53;4971716;28;20030;-81
2024/01/31 01:09:12;;;;;;;8.10;1.57;;;;;;;-145.18;100.00;46988.56;4955597;28;20129;-81
2024/01/31 01:11:37;;;;;;;6.10;1.33;;;;;;;-145.18;100.00;46992.47;4973033;28;20039;-81
2024/01/31 01:14:03;;;;;;;7.10;2.67;;;;;;;-145.18;100.00;46994.44;4971762;28;20070;-81
2024/01/31 01:16:29;;;;;;;8.10;2.00;;;;;;;-145.18;100.00;46994.44;4973088;28;20050;-81
2024/01/31 01:18:55;;;;;;;9.20;1.27;;;;;;;-145.18;100.00;46990.53;4970252;28;20050;-81
2024/01/31 01:21:20;;;;;;;6.20;1.20;;;;;;;-145.18;100.00;46992.47;4971798;28;20300;-81
2024/01/31 01:23:45;;;;;;;10.73;1.80;;;;;;;-145.18;100.00;46990.53;5003779;28;20084;-81
2024/01/31 01:26:12;;;;;;;7.17;1.37;;;;;;;-145.18;100.00;46992.47;4994521;28;20066;-81
2024/01/31 01:28:38;;;;;;;10.53;1.50;;;;;;;-145.18;100.00;46998.34;5008880;28;20034;-81
2024/01/31 01:31:04;;;;;;;7.13;1.33;;;;;;;-145.18;100.00;46994.44;5012007;28;20322;-81
2024/01/31 01:33:29;;;;;;;4.03;1.23;;;;;;;-145.18;100.00;46996.38;5011563;28;20471;-81
2024/01/31 01:35:55;;;;;;;8.67;1.60;;;;;;;-145.18;100.00;46992.47;4993757;28;20072;-80
2024/01/31 01:38:20;;;;;;;9.00;2.00;;;;;;;-145.18;100.00;46996.38;5011709;28;20455;-81
2024/01/31 01:40:45;;;;;;;6.93;1.43;;;;;;;-145.18;100.00;46996.38;4993956;28;20080;-81
2024/01/31 01:43:18;;;;;;;6.93;1.40;;;;;;;-145.18;100.00;46998.34;4994009;28;20133;-81
2024/01/31 01:45:44;;;;;;;6.33;1.40;;;;;;;-145.18;100.00;46994.44;5011747;28;20046;-81
2024/01/31 01:48:11;;;;;;;8.07;1.73;;;;;;;-145.18;100.00;46996.38;5011019;28;20302;-81
2024/01/31 01:50:38;;;;;;;7.50;1.40;;;;;;;-145.18;100.00;46994.44;5011470;28;20648;-81
2024/01/31 01:53:03;;;;;;;6.37;1.33;;;;;;;-145.18;100.00;46998.34;5011318;28;20310;-81
2024/01/31 01:55:29;;;;;;;8.80;1.70;;;;;;;-145.18;100.00;46998.34;5011516;28;20728;-81
2024/01/31 01:57:55;;;;;;;5.97;1.20;;;;;;;-145.18;100.00;47002.25;5010861;28;20422;-81
2024/01/31 02:00:24;;;;;;;6.53;1.63;;;;;;;-145.18;100.00;47000.28;5010703;28;20026;-81
2024/01/31 02:02:50;;;;;;;6.83;1.73;;;;;;;-145.18;100.00;47000.28;4992226;28;20292;-81
2024/01/31 02:05:16;;;;;;;9.40;2.30;;;;;;;-145.18;100.00;47000.28;4990801;28;20279;-81
2024/01/31 02:07:42;;;;;;;5.00;2.10;;;;;;;-145.18;100.00;47002.25;5011526;28;20343;-82
2024/01/31 02:10:08;;;;;;;7.23;2.47;;;;;;;-145.18;100.00;47002.25;5010998;28;20374;-81
2024/01/31 02:12:33;;;;;;;8.03;2.27;;;;;;;-145.18;100.00;47004.19;5010852;28;20045;-81
2024/01/31 02:14:59;;;;;;;7.90;2.47;;;;;;;-145.18;100.00;47004.19;4992959;28;20159;-81
2024/01/31 02:17:24;;;;;;;10.23;2.33;;;;;;;-145.18;100.00;47004.19;4993497;28;20076;-81
2024/01/31 02:19:50;;;;;;;13.43;2.43;;;;;;;-145.18;100.00;47008.09;4992561;28;20546;-81
2024/01/31 02:22:19;;;;;;;9.07;2.10;;;;;;;-145.18;100.00;47010.06;5010929;28;20050;-81
2024/01/31 02:24:45;;;;;;;12.00;2.00;;;;;;;-145.18;100.00;47010.06;5010267;28;20053;-81
2024/01/31 02:27:10;;;;;;;13.50;2.90;;;;;;;-145.18;100.00;47010.06;4976722;28;20632;-81
2024/01/31 02:29:39;;;;;;;6.07;2.10;;;;;;;-145.18;100.00;47010.06;4958767;28;20026;-81
2024/01/31 02:32:06;;;;;;;5.63;2.00;;;;;;;-145.18;100.00;47012.00;5010682;28;20045;-81
2024/01/31 02:34:31;;;;;;;6.20;2.00;;;;;;;-145.18;100.00;47012.00;4991281;28;20283;-83
2024/01/31 02:36:57;;;;;;;10.07;2.60;;;;;;;-145.18;100.00;47010.06;5009807;28;20278;-81
2024/01/31 02:39:22;;;;;;;3.53;1.73;;;;;;;-145.18;100.00;47013.97;5010766;28;20062;-81
2024/01/31 02:41:47;;;;;;;7.90;1.70;;;;;;;-145.18;100.00;47015.91;5008882;28;20028;-81
2024/01/31 02:44:13;;;;;;;7.70;1.73;;;;;;;-145.18;100.00;47010.06;5010322;28;20049;-81
2024/01/31 02:46:38;;;;;;;7.73;1.97;;;;;;;-145.18;100.00;47013.97;5010617;28;20034;-81
2024/01/31 02:49:04;;;;;;;5.20;1.87;;;;;;;-145.18;100.00;47010.06;4976803;28;20034;-81
2024/01/31 02:51:29;;;;;;;7.20;1.60;;;;;;;-145.18;100.00;47010.06;4992525;28;20694;-81
2024/01/31 02:53:55;;;;;;;3.77;1.57;;;;;;;-145.18;100.00;47012.00;5010322;28;20394;-81
2024/01/31 02:56:20;;;;;;;7.00;2.40;;;;;;;-145.18;100.00;47012.00;5010429;28;20045;-81
2024/01/31 02:58:45;;;;;;;6.00;1.93;;;;;;;-145.18;100.00;47012.00;4990555;28;20029;-81
2024/01/31 03:01:11;;;;;;;9.13;2.00;;;;;;;-145.18;100.00;47015.91;4974285;28;20058;-81
2024/01/31 03:03:36;;;;;;;4.80;1.83;;;;;;;-145.18;100.00;47013.97;4992719;28;20068;-82
2024/01/31 03:06:02;;;;;;;6.03;1.73;;;;;;;-145.18;100.00;47013.97;4992332;28;20037;-81
2024/01/31 03:08:27;;;;;;;4.03;1.90;;;;;;;-145.18;100.00;47015.91;5010635;28;20038;-82
2024/01/31 03:10:52;;;;;;;4.93;1.60;;;;;;;-145.18;100.00;47015.91;4992187;28;20141;-81
2024/01/31 03:13:18;;;;;;;6.60;2.20;;;;;;;-145.18;100.00;47017.88;5014050;28;20037;-81
2024/01/31 03:15:43;;;;;;;5.83;1.90;;;;;;;-145.18;100.00;47015.91;4996407;28;20072;-81
2024/01/31 03:18:08;;;;;;;6.67;2.00;;;;;;;-145.18;100.00;47017.88;5014650;28;20026;-81
2024/01/31 03:20:34;;;;;;;10.50;3.10;;;;;;;-145.18;100.00;47015.91;4995900;28;20070;-81
2024/01/31 03:23:03;;;;;;;8.63;3.03;;;;;;;-145.18;100.00;47017.88;4996275;28;20050;-81
2024/01/31 03:25:29;;;;;;;9.30;4.40;;;;;;;-145.18;100.00;47015.91;5013750;28;20080;-81
2024/01/31 03:27:54;;;;;;;10.47;4.90;;;;;;;-145.18;100.00;47021.78;4996544;28;20268;-81
2024/01/31 03:30:19;;;;;;;10.37;5.77;;;;;;;-145.18;100.00;47017.88;4979484;28;20080;-81
2024/01/31 03:32:46;;;;;;;20.90;6.50;;;;;;;-145.18;100.00;47021.78;5013628;28;20069;-81
2024/01/31 03:35:11;;;;;;;16.43;6.97;;;;;;;-145.18;100.00;47019.81;4994399;28;20034;-81
2024/01/31 03:37:36;;;;;;;15.77;7.20;;;;;;;-145.18;100.00;47023.72;4996271;28;20750;-81
2024/01/31 03:40:05;;;;;;;15.30;7.83;;;;;;;-145.18;100.00;47017.88;5013527;28;20475;-81
2024/01/31 03:42:30;;;;;;;15.63;8.40;;;;;;;-145.18;100.00;47023.72;4978221;28;20045;-81
2024/01/31 03:44:57;;;;;;;13.47;8.23;;;;;;;-145.18;100.00;47023.72;5013582;28;20306;-81
2024/01/31 03:47:22;;;;;;;13.97;7.00;;;;;;;-145.18;100.00;47019.81;4995750;28;20041;-81
2024/01/31 03:49:48;;;;;;;15.53;8.80;;;;;;;-145.18;100.00;47023.72;5013124;28;20264;-81
2024/01/31 03:52:13;;;;;;;21.23;9.40;;;;;;;-145.18;100.00;47023.72;5013973;28;20043;-81
2024/01/31 03:54:38;;;;;;;15.87;9.73;;;;;;;-145.18;100.00;47021.78;4995446;28;20125;-81
2024/01/31 03:57:04;;;;;;;20.63;9.63;;;;;;;-145.18;100.00;47021.78;4979158;28;20041;-81
2024/01/31 03:59:29;;;;;;;15.53;10.13;;;;;;;-145.18;100.00;47021.78;5013045;28;20124;-81
2024/01/31 04:01:55;;;;;;;18.13;10.87;;;;;;;-145.18;100.00;47021.78;4978984;28;20057;-81
2024/01/31 04:04:20;;;;;;;18.37;11.07;;;;;;;-145.18;100.00;47025.69;4979198;28;20045;-81
2024/01/31 04:06:46;;;;;;;21.43;12.30;;;;;;;-145.18;100.00;47025.69;4995497;28;20492;-81
2024/01/31 04:09:11;;;;;;;21.47;12.40;;;;;;;-145.18;100.00;47027.63;4995462;28;20037;-81
2024/01/31 04:11:37;;;;;;;20.90;13.13;;;;;;;-145.18;100.00;47023.72;5012902;28;20034;-81
2024/01/31 04:14:02;;;;;;;22.00;12.63;;;;;;;-145.18;100.00;47025.69;4994138;28;20114;-81
2024/01/31 04:16:28;;;;;;;22.20;11.57;;;;;;;-145.18;100.00;47027.63;4995139;28;20066;-81
2024/01/31 04:18:54;;;;;;;21.27;13.10;;;;;;;-145.18;100.00;47027.63;5013080;28;20060;-81
2024/01/31 04:21:20;;;;;;;23.50;12.97;;;;;;;-145.18;100.00;47023.72;4979012;28;20033;-81
2024/01/31 04:23:46;;;;;;;24.00;11.83;;;;;;;-145.18;100.00;47029.59;5012566;28;20499;-81
2024/01/31 04:26:12;;;;;;;17.07;11.27;;;;;;;-145.18;100.00;47025.69;5012598;28;20263;-81
2024/01/31 04:28:38;;;;;;;20.97;12.07;;;;;;;-145.18;100.00;47023.72;4995333;28;20278;-81
2024/01/31 04:31:03;;;;;;;19.70;12.57;;;;;;;-145.18;100.00;47027.63;4978579;28;20065;-81
2024/01/31 04:33:29;;;;;;;25.13;11.73;;;;;;;-145.18;100.00;47025.69;5012435;28;20200;-81
2024/01/31 04:35:54;;;;;;;20.83;11.67;;;;;;;-145.18;100.00;47023.72;4994522;28;20037;-81
2024/01/31 04:38:20;;;;;;;21.40;11.97;;;;;;;-145.18;100.00;47023.72;4995105;28;20030;-81
2024/01/31 04:40:45;;;;;;;20.37;12.30;;;;;;;-145.18;100.00;47023.72;5012108;28;20034;-81
2024/01/31 04:43:11;;;;;;;15.53;11.77;;;;;;;-145.18;100.00;47023.72;4994838;28;20663;-81
2024/01/31 04:45:36;;;;;;;20.23;11.17;;;;;;;-145.18;100.00;47017.88;5012592;28;20045;-81
2024/01/31 04:48:01;;;;;;;20.10;10.93;;;;;;;-145.18;100.00;47025.69;4994892;28;20042;-81
2024/01/31 04:50:28;;;;;;;24.07;12.77;;;;;;;-145.18;100.00;47023.72;4994277;28;20442;-81
2024/01/31 04:52:53;;;;;;;21.50;10.73;;;;;;;-145.18;100.00;47021.78;5011997;28;20056;-81
2024/01/31 04:55:19;;;;;;;23.43;11.87;;;;;;;-145.18;100.00;47019.81;4978285;28;20740;-81
2024/01/31 04:57:45;;;;;;;15.63;9.83;;;;;;;-145.18;100.00;47023.72;4994204;28;20123;-80
2024/01/31 05:00:17;;;;;;;19.23;10.90;;;;;;;-145.18;100.00;47025.69;5009205;28;20038;-81
2024/01/31 05:02:42;;;;;;;17.70;9.57;;;;;;;-145.18;100.00;47019.81;5010813;28;20099;-81
2024/01/31 05:05:08;;;;;;;15.97;8.70;;;;;;;-145.18;100.00;47015.91;4993071;28;20259;-81
2024/01/31 05:07:33;;;;;;;13.43;8.40;;;;;;;-145.18;100.00;47010.06;5010599;28;20029;-81
2024/01/31 05:09:59;;;;;;;14.23;8.63;;;;;;;-145.18;100.00;47010.06;4958598;28;20041;-81
2024/01/31 05:12:24;;;;;;;14.97;7.67;;;;;;;-145.18;100.00;47008.09;5009940;28;20044;-81
2024/01/31 05:14:50;;;;;;;10.03;6.13;;;;;;;-145.18;100.00;47000.28;5011049;28;20038;-81
2024/01/31 05:17:15;;;;;;;5.80;4.60;;;;;;;-145.18;100.00;46990.53;5011334;28;20127;-81
2024/01/31 05:19:42;;;;;;;6.80;4.90;;;;;;;-145.18;100.00;46976.84;5009874;28;20033;-81
2024/01/31 05:22:08;;;;;;;12.13;6.43;;;;;;;-145.18;100.00;46969.03;4993796;28;20092;-81
2024/01/31 05:24:33;;;;;;;15.07;7.43;;;;;;;-145.18;100.00;46961.22;5008818;28;20259;-81
2024/01/31 05:27:03;;;;;;;14.17;7.70;;;;;;;-145.18;100.00;46949.50;5011727;28;20034;-81
2024/01/31 05:29:32;;;;;;;13.17;7.73;;;;;;;-145.18;100.00;46953.41;4993501;28;20425;-81
2024/01/31 05:31:57;;;;;;;12.47;7.37;;;;;;;-145.18;100.00;46941.69;4993969;28;20283;-81
2024/01/31 05:34:22;;;;;;;16.57;9.00;;;;;;;-145.18;100.00;46947.53;4971796;28;20755;-79
2024/01/31 05:36:51;;;;;;;11.57;8.00;;;;;;;-145.18;100.00;46947.53;5008678;28;20025;-80
2024/01/31 05:39:16;;;;;;;16.87;8.37;;;;;;;-145.18;100.00;46947.53;4993204;28;20085;-80
2024/01/31 05:41:45;;;;;;;14.93;9.03;;;;;;;-145.18;100.00;46945.59;4993396;28;20354;-80
2024/01/31 05:44:11;;;;;;;17.13;9.00;;;;;;;-145.18;100.00;46943.63;5010932;28;20052;-80
2024/01/31 05:46:36;;;;;;;17.13;10.67;;;;;;;-145.18;100.00;46943.63;4993843;28;20263;-80
2024/01/31 05:49:02;;;;;;;23.27;10.93;;;;;;;-145.18;100.00;46947.53;4992354;28;20069;-80
2024/01/31 05:51:31;;;;;;;21.03;10.37;;;;;;;-145.18;100.00;46951.44;4994089;28;20038;-80
2024/01/31 05:53:56;;;;;;;22.33;10.33;;;;;;;-145.18;100.00;46949.50;5009717;28;20054;-80
2024/01/31 05:56:22;;;;;;;22.20;10.23;;;;;;;-145.18;100.00;46949.50;5011901;28;20303;-80
2024/01/31 05:58:48;;;;;;;17.07;9.87;;;;;;;-145.18;100.00;46955.34;5009880;28;20033;-80
2024/01/31 06:01:13;;;;;;;20.13;9.87;;;;;;;-145.18;100.00;46953.41;4991387;28;20334;-80
2024/01/31 06:03:39;;;;;;;24.00;12.07;;;;;;;-145.18;100.00;46961.22;5009977;28;20506;-80
2024/01/31 06:06:06;;;;;;;24.07;13.33;;;;;;;-145.18;100.00;46963.19;5009602;28;20029;-80
2024/01/31 06:08:32;;;;;;;22.93;12.80;;;;;;;-145.18;100.00;46967.09;5010149;28;20155;-80
2024/01/31 06:11:04;;;;;;;20.30;12.43;;;;;;;-145.18;100.00;46967.09;5009711;28;20275;-79
2024/01/31 06:13:30;;;;;;;24.13;12.73;;;;;;;-145.18;100.00;46963.19;5008265;28;20368;-80
2024/01/31 06:15:55;;;;;;;25.63;12.43;;;;;;;-145.18;100.00;46969.03;5010241;28;20251;-80
2024/01/31 06:18:22;;;;;;;18.40;9.60;;;;;;;-145.18;100.00;46969.03;5007686;28;20031;-80
2024/01/31 06:20:48;;;;;;;15.63;8.60;;;;;;;-145.18;100.00;46972.94;5010105;28;20032;-80
2024/01/31 06:23:13;;;;;;;15.37;6.60;;;;;;;-145.18;100.00;46963.19;4992296;28;20375;-80
2024/01/31 06:25:39;;;;;;;10.20;6.87;;;;;;;-145.18;100.00;46961.22;5010177;28;20779;-80
2024/01/31 06:28:06;;;;;;;11.63;6.70;;;;;;;-145.18;100.00;46951.44;5010178;28;20042;-80
2024/01/31 06:30:33;;;;;;;12.73;7.07;;;;;;;-145.18;100.00;46945.59;5010440;28;20471;-80
2024/01/31 06:33:08;;;;;;;15.13;7.53;;;;;;;-145.18;100.00;46945.59;5010225;28;20263;-80
2024/01/31 06:35:34;;;;;;;13.13;7.87;;;;;;;-145.18;100.00;46941.69;5010389;28;20275;-80
2024/01/31 06:38:01;;;;;;;17.50;9.57;;;;;;;-145.18;100.00;46939.72;5010153;28;20290;-81
2024/01/31 06:40:26;;;;;;;17.20;7.87;;;;;;;-145.18;100.00;46941.69;4992633;28;20656;-80
2024/01/31 06:42:52;;;;;;;14.93;7.93;;;;;;;-145.18;100.00;46935.81;5007490;28;20251;-80
2024/01/31 06:45:17;;;;;;;15.67;8.03;;;;;;;-145.18;100.00;46935.81;5011025;28;20103;-81
2024/01/31 06:47:43;;;;;;;14.20;7.30;;;;;;;-145.18;100.00;46935.81;5015372;28;20029;-81
2024/01/31 06:50:09;;;;;;;17.50;8.27;;;;;;;-145.18;100.00;46935.81;4997211;28;20440;-80
2024/01/31 06:52:34;;;;;;;17.17;7.73;;;;;;;-145.18;100.00;46933.88;5014693;28;20439;-80
2024/01/31 06:55:01;;;;;;;18.27;7.10;;;;;;;-145.18;100.00;46929.97;5015929;28;20049;-80
2024/01/31 06:57:27;;;;;;;16.13;6.60;;;;;;;-145.18;100.00;46922.16;5015331;28;20034;-81
2024/01/31 06:59:52;;;;;;;11.27;6.83;;;;;;;-145.18;100.00;46926.06;5015787;28;20262;-80
2024/01/31 07:02:18;;;;;;;11.90;6.40;;;;;;;-145.18;100.00;46926.06;5015362;28;20041;-80
2024/01/31 07:04:43;;;;;;;12.53;5.80;;;;;;;-145.18;100.00;46918.25;5014291;28;20033;-80
2024/01/31 07:07:09;;;;;;;12.20;5.60;;;;;;;-145.18;100.00;46918.25;4997723;28;20029;-80
2024/01/31 07:09:34;;;;;;;11.57;5.67;;;;;;;-145.18;100.00;46916.28;5015457;28;20402;-80
2024/01/31 07:12:00;;;;;;;8.17;4.50;;;;;;;-145.18;100.00;46910.44;5015140;28;20032;-79
2024/01/31 07:14:25;;;;;;;6.60;4.07;;;;;;;-145.18;100.00;46906.53;5015132;28;20037;-79
2024/01/31 07:16:51;;;;;;;10.27;5.10;;;;;;;-145.18;100.00;46902.63;5014782;28;20034;-80
2024/01/31 07:19:17;;;;;;;6.37;4.10;;;;;;;-145.18;100.00;46900.66;4997376;28;20482;-79
2024/01/31 07:21:42;;;;;;;6.30;4.10;;;;;;;-145.18;100.00;46888.94;5015268;28;20033;-80
2024/01/31 07:24:07;;;;;;;10.30;4.10;;;;;;;-145.18;100.00;46890.91;5014619;28;20286;-82
2024/01/31 07:26:33;;;;;;;6.70;4.03;;;;;;;-145.18;100.00;46887.00;4997330;28;20092;-82
2024/01/31 07:28:58;;;;;;;9.47;4.20;;;;;;;-145.18;100.00;46881.13;4997309;28;20026;-82
2024/01/31 07:31:24;;;;;;;5.40;3.43;;;;;;;-145.18;100.00;46879.19;5007752;28;20374;-81
2024/01/31 07:33:49;;;;;;;7.67;3.90;;;;;;;-145.18;100.00;46875.28;5014734;28;20034;-81
2024/01/31 07:36:15;;;;;;;5.63;3.93;;;;;;;-145.18;100.00;46875.28;5014532;28;20030;-81
2024/01/31 07:38:45;;;;;;;6.00;3.70;;;;;;;-145.18;100.00;46875.28;5013854;28;20038;-80
2024/01/31 07:41:10;;;;;;;8.90;6.03;;;;;;;-145.18;100.00;46873.31;5014542;28;20084;-80
2024/01/31 07:43:36;;;;;;;7.03;3.80;;;;;;;-145.18;100.00;46871.38;5014755;28;20311;-80
2024/01/31 07:46:03;;;;;;;5.37;3.70;;;;;;;-145.18;100.00;46871.38;4997020;28;20033;-81
2024/01/31 07:48:32;;;;;;;5.43;3.77;;;;;;;-145.18;100.00;46877.22;5014680;28;20084;-82
2024/01/31 07:50:58;;;;;;;7.13;3.30;;;;;;;-145.18;100.00;46877.22;4996417;28;20291;-80
2024/01/31 07:53:24;;;;;;;8.90;3.73;;;;;;;-145.18;100.00;46879.19;5014078;28;20806;-81
2024/01/31 07:55:49;;;;;;;9.20;4.10;;;;;;;-145.18;100.00;46879.19;5013941;28;20263;-80
2024/01/31 07:58:15;;;;;;;5.73;3.37;;;;;;;-145.18;100.00;46881.13;5013453;28;20033;-81
2024/01/31 08:00:40;;;;;;;11.13;4.73;;;;;;;-145.18;100.00;46875.28;5013867;28;20482;-81
2024/01/31 08:03:05;;;;;;;7.43;3.63;;;;;;;-145.18;100.00;46883.09;4997128;28;20030;-80
2024/01/31 08:05:31;;;;;;;14.37;5.47;;;;;;;-145.18;100.00;46888.94;5013872;28;20119;-80
2024/01/31 08:07:56;;;;;;;9.27;4.30;;;;;;;-145.18;100.00;46887.00;5014202;28;20034;-81
2024/01/31 08:10:22;;;;;;;10.23;4.80;;;;;;;-145.18;100.00;46892.84;5013663;28;20065;-82
2024/01/31 08:12:48;;;;;;;13.83;4.90;;;;;;;-145.18;100.00;46894.81;4996327;28;20124;-81
2024/01/31 08:15:13;;;;;;;11.73;4.77;;;;;;;-145.18;100.00;46902.63;5013991;28;20368;-82
2024/01/31 08:17:39;;;;;;;11.50;5.97;;;;;;;-145.18;100.00;46904.56;4996143;28;20350;-82
2024/01/31 08:20:06;;;;;;;11.93;4.83;;;;;;;-145.18;100.00;46912.38;4995935;28;20029;-81
2024/01/31 08:22:33;;;;;;;11.00;5.17;;;;;;;-145.18;100.00;46912.38;5013232;28;20058;-81
2024/01/31 08:24:59;;;;;;;11.20;5.17;;;;;;;-145.18;100.00;46910.44;5013402;28;20290;-82
2024/01/31 08:27:24;;;;;;;14.30;5.47;;;;;;;-145.18;100.00;46920.19;4996619;28;20760;-81
2024/01/31 08:29:53;;;;;;;9.63;4.90;;;;;;;-145.18;100.00;46926.06;5014106;28;20025;-81
2024/01/31 08:32:18;;;;;;;10.97;5.23;;;;;;;-145.18;100.00;46931.91;5013495;28;20044;-81
2024/01/31 08:34:44;;;;;;;13.30;5.60;;;;;;;-145.18;100.00;46929.97;5012942;28;20279;-81
2024/01/31 08:37:09;;;;;;;14.07;5.07;;;;;;;-145.18;100.00;46933.88;4995857;28;20117;-81
2024/01/31 08:39:34;;;;;;;13.97;5.67;;;;;;;-145.18;100.00;46933.88;5013351;28;20383;-80
2024/01/31 08:42:00;;;;;;;21.33;6.97;;;;;;;-145.18;100.00;46943.63;5013720;28;20084;-82
2024/01/31 08:44:25;;;;;;;12.53;5.97;;;;;;;-145.18;100.00;46943.63;5013361;28;20474;-82
2024/01/31 08:46:52;;;;;;;11.30;6.00;;;;;;;-145.18;100.00;46945.59;5013184;28;20034;-81
2024/01/31 08:49:17;;;;;;;18.17;7.90;;;;;;;-145.18;100.00;46955.34;5012821;28;20028;-81
2024/01/31 08:51:43;;;;;;;16.20;6.60;;;;;;;-145.18;100.00;46949.50;5013523;28;20271;-82
2024/01/31 08:54:08;;;;;;;13.60;7.60;;;;;;;-145.18;100.00;46949.50;5013001;28;20108;-81
2024/01/31 08:56:34;;;;;;;15.43;7.53;;;;;;;-145.18;100.00;46955.34;5013396;28;20167;-82
2024/01/31 08:58:59;;;;;;;22.30;7.23;;;;;;;-145.18;100.00;46955.34;5013374;28;20125;-82
2024/01/31 09:01:25;;;;;;;12.20;6.23;;;;;;;-145.18;100.00;46955.34;4995838;28;20061;-82
2024/01/31 09:03:51;;;;;;;15.50;8.47;;;;;;;-145.18;100.00;46961.22;5012603;28;20038;-81
2024/01/31 09:06:16;;;;;;;16.60;8.00;;;;;;;-145.18;100.00;46957.31;5013549;28;20029;-80
2024/01/31 09:08:42;;;;;;;16.77;8.37;;;;;;;-145.18;100.00;46959.25;5012844;28;20144;-81
2024/01/31 09:11:08;;;;;;;17.00;8.20;;;;;;;-145.18;100.00;46961.22;4995950;28;20038;-81
2024/01/31 09:13:33;;;;;;;21.90;9.40;;;;;;;-145.18;100.00;46961.22;4995127;28;20037;-80
2024/01/31 09:16:00;;;;;;;14.93;8.50;;;;;;;-145.18;100.00;46957.31;5013555;28;20069;-81
2024/01/31 09:18:25;;;;;;;16.07;9.33;;;;;;;-145.18;100.00;46957.31;5012686;28;20033;-81
2024/01/31 09:20:50;;;;;;;22.57;10.70;;;;;;;-145.18;100.00;46963.19;5013167;28;20270;-81
2024/01/31 09:23:16;;;;;;;18.33;10.63;;;;;;;-145.18;100.00;46961.22;5012847;28;20085;-80
2024/01/31 09:25:41;;;;;;;18.83;9.63;;;;;;;-145.18;100.00;46963.19;4995440;28;20523;-81
2024/01/31 09:28:06;;;;;;;20.80;10.47;;;;;;;-145.18;100.00;46959.25;5013014;28;20029;-81
2024/01/31 09:30:32;;;;;;;22.40;10.43;;;;;;;-145.18;100.00;46959.25;5013609;28;20475;-82
2024/01/31 09:32:57;;;;;;;31.23;11.43;;;;;;;-145.18;100.00;46967.09;5012294;28;20026;-82
2024/01/31 09:35:23;;;;;;;25.40;11.57;;;;;;;-145.18;100.00;46961.22;5013084;28;20026;-81
2024/01/31 09:37:48;;;;;;;22.83;10.77;;;;;;;-145.18;100.00;46965.13;5012207;28;20482;-80
2024/01/31 09:40:15;;;;;;;28.30;11.63;;;;;;;-145.18;100.00;46963.19;5012864;28;20030;-81
2024/01/31 09:42:43;;;;;;;24.53;11.40;;;;;;;-145.18;100.00;46963.19;4995268;28;20466;-80
2024/01/31 09:45:12;;;;;;;29.63;12.60;;;;;;;-145.18;100.00;46965.13;5012433;28;20262;-81
2024/01/31 09:47:40;;;;;;;30.20;13.27;;;;;;;-145.18;100.00;46963.19;4995005;28;20321;-81
2024/01/31 09:50:07;;;;;;;34.07;13.17;;;;;;;-145.18;100.00;46963.19;4994992;28;20256;-81
2024/01/31 09:52:35;;;;;;;28.07;13.07;;;;;;;-145.18;100.00;46971.00;5012033;28;20314;-80
2024/01/31 09:55:04;;;;;;;30.37;12.97;;;;;;;-145.18;100.00;46969.03;5012690;28;20283;-81
2024/01/31 09:57:30;;;;;;;31.83;13.87;;;;;;;-145.18;100.00;46963.19;4978859;28;20407;-82
2024/01/31 09:59:56;;;;;;;29.83;13.70;;;;;;;-145.18;100.00;46965.13;5012410;28;20255;-83
2024/01/31 10:02:22;;;;;;;32.57;14.13;;;;;;;-145.18;100.00;46967.09;5012487;28;20034;-82
2024/01/31 10:04:50;;;;;;;30.03;14.33;;;;;;;-145.18;100.00;46971.00;5012788;28;20314;-81
2024/01/31 10:07:28;;;;;;;34.73;16.03;;;;;;;-145.18;100.00;46967.09;5012244;28;20475;-81
2024/01/31 10:09:55;;;;;;;35.57;15.37;;;;;;;-145.18;100.00;46969.03;4994884;28;20273;-82
2024/01/31 10:12:22;;;;;;;34.67;15.87;;;;;;;-145.18;100.00;46971.00;4983095;28;20321;-81
2024/01/31 10:14:48;;;;;;;39.37;16.77;;;;;;;-145.18;100.00;46969.03;5011328;28;20283;-81
2024/01/31 10:17:14;;;;;;;30.73;14.30;;;;;;;-145.18;100.00;46972.94;4994497;28;20720;-82
2024/01/31 10:19:39;;;;;;;39.73;17.13;;;;;;;-145.18;100.00;46972.94;5011543;28;20265;-81
2024/01/31 10:22:05;;;;;;;48.90;18.10;;;;;;;-145.18;100.00;46980.75;5011327;28;20705;-81
2024/01/31 10:24:31;;;;;;;45.23;17.40;;;;;;;-145.18;100.00;46972.94;5011315;28;20054;-81
2024/01/31 10:26:57;;;;;;;46.83;17.10;;;;;;;-145.18;100.00;46972.94;5011855;28;20017;-81
2024/01/31 10:29:23;;;;;;;46.77;17.60;;;;;;;-145.18;100.00;46972.94;5011785;28;20254;-82
2024/01/31 10:31:50;;;;;;;45.37;17.43;;;;;;;-145.18;100.00;46974.91;5011505;28;20386;-83
2024/01/31 10:34:16;;;;;;;42.50;18.80;;;;;;;-145.18;100.00;46974.91;5011092;28;20287;-83
2024/01/31 10:36:43;;;;;;;47.47;17.97;;;;;;;-145.18;100.00;46971.00;5011683;28;20288;-83
2024/01/31 10:39:11;;;;;;;50.10;19.33;;;;;;;-145.18;100.00;46971.00;5010337;28;20668;-83
2024/01/31 10:41:40;;;;;;;46.17;18.17;;;;;;;-145.18;100.00;46972.94;5011421;28;20255;-84
2024/01/31 10:44:10;;;;;;;54.70;19.50;;;;;;;-145.18;100.00;46972.94;4993866;28;20275;-84
2024/01/31 10:46:37;;;;;;;42.60;18.63;;;;;;;-145.18;100.00;46971.00;5011651;28;20321;-84
2024/01/31 10:49:02;;;;;;;45.23;18.33;;;;;;;-145.18;100.00;46971.00;5011088;28;20264;-82
2024/01/31 10:51:29;;;;;;;49.93;19.00;;;;;;;-145.18;100.00;46978.81;5011483;28;20786;-83
2024/01/31 10:53:56;;;;;;;42.27;17.50;;;;;;;-145.18;100.00;46972.94;4993896;28;20454;-82
2024/01/31 10:56:24;;;;;;;47.83;18.13;;;;;;;-145.18;100.00;46971.00;5011032;28;20263;-82